Terminal Aerodrome Forecast
Issued by NWS

Home | Current Version | Previous Version | Text Only | Print | Product List | Glossary On
Versions: 1 2 3 4 5 6 7 8 9 10 11 12 13
300
FTUS44 KTSA 230520
TAFMLC
TAF
KMLC 230520Z 2306/2406 16003KT P6SM SKC
     FM231800 18006KT P6SM SCT050
     FM240000 VRB03KT P6SM SCT050 BKN250 PROB30 2402/2406 5SM TSRA
      BKN050CB=

USA.gov is the U.S. government's official web portal to all federal, state and local government web resources and services.